Lake Elizabeth, California
Current Conditions -  °F | °C
As of 11:48 AM on Friday 24 Oct 2014 (Local Time) from KSDB Reporting Station
Clear Clear  
Wind Chill: 78°   Ceiling: Unl
Heat Index: 78°   Visibility: 10mi
Dew Point:   Wind: 18mph
Humidity: 7%   Direction: 170°S
Pressure: 30.17"   Gusts: 26mph
Location:  34.6849°N, 118.558°W
Report Text: KSDB 241848Z AUTO 17016G23KT 10SM CLR 26/M13 A3017 RMK AO2 SLP162 T02561128
Loading
Personal Weather Stations






























Interactive Weather Map
Tropical Storm Tracking
New forecast layout! Learn more

10-Day Weather Forecast

Advertisements
Track Severe Weather on mobile